Time;durP1;ratioP1;P1;durP2;ratioP2;P2;SDS_P1;SDS_P2;PMS_P1;PMS_P2;Temp;Humidity;BMP_temperature;BMP_pressure;BME280_temperature;BME280_humidity;BME280_pressure;Samples;Min_cycle;Max_cycle;Signal;HPM_P1;HPM_P2
2021/11/21 09:23:55;;;;;;;21.62;13.85;;;;;;;7.82;97.00;99656.29;1702693;82;22356;-48
2021/11/21 09:26:49;;;;;;;21.17;13.38;;;;;;;7.82;96.83;99661.06;1600852;88;21650;-42
2021/11/21 09:29:18;;;;;;;15.32;12.33;;;;;;;7.82;96.49;99659.76;1619643;87;21053;-49
2021/11/21 09:31:46;;;;;;;27.20;13.18;;;;;;;7.82;96.13;99654.55;1619692;87;21144;-48
2021/11/21 09:34:15;;;;;;;22.85;13.72;;;;;;;7.84;96.41;99660.66;1619563;87;21060;-49
2021/11/21 09:37:09;;;;;;;34.38;13.05;;;;;;;7.86;96.08;99657.60;1617938;87;21445;-49
2021/11/21 09:39:37;;;;;;;17.42;12.98;;;;;;;7.86;96.20;99649.79;1603345;88;21116;-49
2021/11/21 09:42:10;;;;;;;35.15;14.00;;;;;;;7.88;96.20;99653.25;1616232;87;21120;-43
2021/11/21 09:44:37;;;;;;;16.87;12.30;;;;;;;7.90;95.27;99657.19;1614031;87;21097;-50
2021/11/21 09:47:05;;;;;;;19.17;12.60;;;;;;;7.90;95.36;99642.86;1614281;87;21721;-49
2021/11/21 09:49:35;;;;;;;19.67;13.13;;;;;;;7.92;95.27;99654.14;1607280;88;21556;-43
2021/11/21 09:52:06;;;;;;;17.12;11.08;;;;;;;7.96;94.74;99648.94;1613741;87;21188;-49
2021/11/21 09:54:34;;;;;;;20.85;12.55;;;;;;;8.00;94.50;99653.28;1612507;89;21639;-48
2021/11/21 09:57:01;;;;;;;29.82;15.70;;;;;;;8.05;93.79;99657.61;1621581;88;21065;-49
2021/11/21 09:59:56;;;;;;;27.95;15.35;;;;;;;8.10;93.41;99650.23;1609978;88;21043;-49
2021/11/21 10:02:42;;;;;;;37.80;18.92;;;;;;;8.14;92.46;99649.80;1544431;88;21516;-43
2021/11/21 10:05:27;;;;;;;25.32;15.40;;;;;;;8.18;92.09;99643.73;1603028;87;21052;-49
2021/11/21 10:08:24;;;;;;;23.67;14.60;;;;;;;8.21;91.59;99655.44;1595546;88;21611;-42
2021/11/21 10:11:13;;;;;;;17.62;12.37;;;;;;;8.24;91.35;99650.23;1561995;90;21145;-43
2021/11/21 10:13:54;;;;;;;17.15;10.23;;;;;;;8.30;90.96;99649.37;1543769;92;21115;-49
2021/11/21 10:16:28;;;;;;;19.77;11.63;;;;;;;8.31;90.59;99642.84;1540993;91;21129;-44
2021/11/21 10:19:06;;;;;;;18.67;10.75;;;;;;;8.32;89.82;99636.75;1522873;92;21193;-42
2021/11/21 10:21:53;;;;;;;21.68;11.68;;;;;;;8.36;89.88;99636.36;1563664;90;21122;-44
2021/11/21 10:24:37;;;;;;;17.70;11.35;;;;;;;8.36;89.77;99639.83;1560060;91;21201;-49
2021/11/21 10:27:11;;;;;;;16.35;10.93;;;;;;;8.38;88.92;99643.73;1540169;91;21106;-44
2021/11/21 10:29:42;;;;;;;13.43;10.68;;;;;;;8.37;88.91;99636.34;1548581;91;21149;-49
2021/11/21 10:32:22;;;;;;;12.58;10.03;;;;;;;8.39;89.08;99632.42;1555963;90;21127;-42
2021/11/21 10:35:04;;;;;;;15.70;10.95;;;;;;;8.39;89.28;99621.56;1516860;92;21111;-43
2021/11/21 10:41:59;;;;;;;14.70;9.28;;;;;;;8.36;88.23;99629.41;1535636;88;21221;-48
2021/11/21 10:48:30;;;;;;;11.50;8.78;;;;;;;8.38;87.28;99633.30;1581096;85;21111;-47
2021/11/21 10:51:04;;;;;;;14.43;8.93;;;;;;;8.42;86.91;99624.61;1544441;89;21592;-48
2021/11/21 10:53:44;;;;;;;13.08;8.88;;;;;;;8.44;85.74;99615.05;1570873;89;21089;-44
2021/11/21 10:56:32;;;;;;;15.23;8.48;;;;;;;8.44;84.97;99630.25;1588373;89;21603;-43
2021/11/21 10:59:03;;;;;;;11.83;8.48;;;;;;;8.47;84.83;99608.53;1607017;89;21077;-44
2021/11/21 11:01:31;;;;;;;10.68;7.87;;;;;;;8.48;84.39;99616.34;1556873;91;21643;-45
2021/11/21 11:04:17;;;;;;;15.65;8.23;;;;;;;8.49;84.16;99606.34;1612784;89;21087;-43
2021/11/21 11:06:45;;;;;;;9.45;6.92;;;;;;;8.50;84.11;99606.77;1583801;89;21124;-43
2021/11/21 11:09:23;;;;;;;9.63;7.15;;;;;;;8.52;83.87;99606.34;1643758;87;21095;-40
2021/11/21 11:11:52;;;;;;;10.50;7.33;;;;;;;8.55;82.99;99608.06;1618562;88;21643;-43
2021/11/21 11:14:20;;;;;;;12.20;7.67;;;;;;;8.58;83.00;99596.74;1626108;88;21049;-48
2021/11/21 11:16:54;;;;;;;14.93;8.30;;;;;;;8.61;82.41;99598.05;1579741;88;21195;-47
2021/11/21 11:19:26;;;;;;;9.28;6.90;;;;;;;8.64;82.00;99598.02;1602382;88;21029;-48
2021/11/21 11:22:00;;;;;;;13.62;8.10;;;;;;;8.63;81.24;99611.94;1638642;86;22005;-50
2021/11/21 11:24:30;;;;;;;13.65;7.92;;;;;;;8.64;81.30;99596.72;1589211;87;21052;-44
2021/11/21 11:27:25;;;;;;;11.95;8.20;;;;;;;8.64;81.19;99603.24;1643589;87;21072;-42
2021/11/21 11:29:52;;;;;;;12.80;7.92;;;;;;;8.63;81.41;99598.47;1615508;87;21040;-41
2021/11/21 11:32:37;;;;;;;10.40;7.42;;;;;;;8.62;81.13;99595.44;1638287;87;21152;-48
2021/11/21 11:35:23;;;;;;;12.33;6.97;;;;;;;8.64;80.70;99596.31;1615220;86;21053;-42
2021/11/21 11:37:55;;;;;;;10.58;6.87;;;;;;;8.65;80.61;99603.27;1580978;88;21140;-42
2021/11/21 11:40:40;;;;;;;11.38;7.92;;;;;;;8.66;80.40;99589.34;1616286;87;21676;-42
2021/11/21 11:43:31;;;;;;;14.20;7.85;;;;;;;8.66;79.85;99585.44;1607147;88;21085;-46
2021/11/21 11:46:22;;;;;;;12.03;8.05;;;;;;;8.67;79.79;99581.95;1636614;87;21571;-42
2021/11/21 11:49:04;;;;;;;11.53;7.80;;;;;;;8.66;79.47;99599.77;1630418;87;21068;-47
2021/11/21 11:51:48;;;;;;;13.58;8.60;;;;;;;8.66;79.50;99595.00;1629221;88;21079;-42
2021/11/21 11:54:23;;;;;;;12.07;8.35;;;;;;;8.64;79.21;99592.41;1580805;89;21053;-43
2021/11/21 11:56:56;;;;;;;11.00;8.18;;;;;;;8.64;79.00;99591.50;1599635;88;21095;-48
2021/11/21 11:59:47;;;;;;;14.47;7.53;;;;;;;8.63;78.68;99591.95;1614536;88;21072;-42
2021/11/21 12:02:37;;;;;;;12.13;7.42;;;;;;;8.63;78.34;99591.08;1628093;88;21635;-41
2021/11/21 12:05:06;;;;;;;15.13;9.15;;;;;;;8.61;77.99;99578.05;1625212;88;21599;-42
2021/11/21 12:07:39;;;;;;;13.18;7.12;;;;;;;8.63;78.54;99576.30;1607080;88;21085;-49
2021/11/21 12:10:12;;;;;;;12.53;8.75;;;;;;;8.64;78.32;99587.19;1634499;88;21080;-43
2021/11/21 12:13:07;;;;;;;14.50;9.20;;;;;;;8.63;78.33;99577.61;1605580;88;21049;-48
2021/11/21 12:15:44;;;;;;;12.90;8.73;;;;;;;8.63;78.88;99578.91;1603203;88;21174;-49
2021/11/21 12:18:20;;;;;;;13.30;9.70;;;;;;;8.62;79.13;99586.30;1586574;89;21723;-42
2021/11/21 12:20:54;;;;;;;16.55;9.08;;;;;;;8.59;79.50;99585.03;1586731;87;21096;-41
2021/11/21 12:23:46;;;;;;;11.60;7.53;;;;;;;8.59;79.30;99573.30;1565425;89;21261;-41
2021/11/21 12:26:37;;;;;;;13.40;7.63;;;;;;;8.59;79.42;99588.94;1624445;88;21100;-49
2021/11/21 12:29:29;;;;;;;15.40;7.78;;;;;;;8.60;79.64;99574.16;1612012;87;21345;-42
2021/11/21 12:31:57;;;;;;;12.73;6.60;;;;;;;8.59;79.87;99571.12;1626883;87;21223;-42
2021/11/21 12:34:49;;;;;;;12.25;7.58;;;;;;;8.58;79.83;99565.05;1600730;89;21031;-42
2021/11/21 12:37:37;;;;;;;13.03;7.05;;;;;;;8.60;79.67;99575.47;1618578;88;21105;-42
2021/11/21 12:40:47;;;;;;;11.22;7.58;;;;;;;8.62;78.96;99569.36;1610151;88;21207;-42
2021/11/21 12:43:32;;;;;;;13.48;7.30;;;;;;;8.62;79.20;99574.58;1633812;88;21093;-47
2021/11/21 12:46:14;;;;;;;12.35;8.18;;;;;;;8.62;79.61;99560.67;1618014;84;21192;-41
2021/11/21 12:48:54;;;;;;;10.63;7.00;;;;;;;8.60;79.78;99559.81;1609390;88;21946;-41
2021/11/21 12:51:22;;;;;;;11.12;6.90;;;;;;;8.59;80.15;99562.00;1602476;87;21579;-48
2021/11/21 12:53:56;;;;;;;12.93;7.75;;;;;;;8.59;80.59;99563.30;1610381;87;21041;-48
2021/11/21 12:56:38;;;;;;;11.40;7.83;;;;;;;8.58;80.87;99560.24;1628163;87;21615;-41
2021/11/21 12:59:56;;;;;;;13.62;8.05;;;;;;;8.56;81.22;99555.48;1622374;87;21089;-42
